createdAt,value
2023-04-17T00:02:21.719Z,96199.66
2023-04-17T00:04:49.003Z,96193.47
2023-04-17T00:07:15.714Z,96192.44
2023-04-17T00:09:42.262Z,96181.97
2023-04-17T00:12:09.190Z,96189.38
2023-04-17T00:14:35.687Z,96181.69
2023-04-17T00:17:02.442Z,96183.97
2023-04-17T00:19:28.964Z,96185.63
2023-04-17T00:21:55.494Z,96185.47
2023-04-17T00:24:22.101Z,96178.81
2023-04-17T00:26:48.654Z,96179.19
2023-04-17T00:29:15.504Z,96183.31
2023-04-17T00:31:42.116Z,96181.09
2023-04-17T00:34:08.796Z,96180.22
2023-04-17T00:36:35.324Z,96183.38
2023-04-17T00:39:01.805Z,96181.03
2023-04-17T00:41:28.283Z,96184.91
2023-04-17T00:43:54.907Z,96180.31
2023-04-17T00:46:21.504Z,96181.72
2023-04-17T00:48:48.580Z,96179.56
2023-04-17T00:51:15.677Z,96188.13
2023-04-17T00:53:42.658Z,96182.03
2023-04-17T00:56:09.572Z,96180.22
2023-04-17T00:58:37.642Z,96171.00
2023-04-17T01:01:06.012Z,96179.50
2023-04-17T01:03:33.153Z,96176.78
2023-04-17T01:06:00.328Z,96177.91
2023-04-17T01:08:27.026Z,96178.84
2023-04-17T01:10:53.657Z,96176.78
2023-04-17T01:13:20.583Z,96172.84
2023-04-17T01:15:47.270Z,96164.00
2023-04-17T01:18:13.953Z,96162.97
2023-04-17T01:20:40.744Z,96155.38
2023-04-17T01:23:07.291Z,96166.03
2023-04-17T01:25:34.512Z,96166.09
2023-04-17T01:28:01.363Z,96165.25
2023-04-17T01:30:29.268Z,96164.28
2023-04-17T01:33:05.457Z,96164.22
2023-04-17T01:35:32.032Z,96171.13
2023-04-17T01:37:58.772Z,96170.56
2023-04-17T01:40:25.336Z,96170.56
2023-04-17T01:42:51.826Z,96171.66
2023-04-17T01:45:18.593Z,96173.19
2023-04-17T01:47:45.552Z,96183.38
2023-04-17T01:50:12.848Z,96177.44
2023-04-17T01:52:40.082Z,96178.13
2023-04-17T01:55:06.957Z,96175.16
2023-04-17T01:57:33.555Z,96183.56
2023-04-17T02:00:00.135Z,96177.34
2023-04-17T02:02:26.821Z,96183.81
2023-04-17T02:04:54.277Z,96175.78
2023-04-17T02:07:20.808Z,96132.25
2023-04-17T02:09:47.369Z,96177.34
2023-04-17T02:12:13.908Z,96175.16
2023-04-17T02:14:40.379Z,96175.19
2023-04-17T02:17:07.172Z,96174.97
2023-04-17T02:19:33.742Z,96173.72
2023-04-17T02:22:02.589Z,96170.19
2023-04-17T02:24:30.517Z,96174.59
2023-04-17T02:27:00.174Z,96180.66
2023-04-17T02:29:26.697Z,96174.41
2023-04-17T02:31:53.603Z,96175.97
2023-04-17T02:34:20.221Z,96182.34
2023-04-17T02:36:48.595Z,96167.44
2023-04-17T02:39:16.416Z,96166.13
2023-04-17T02:41:43.397Z,96174.56
2023-04-17T02:44:10.252Z,96185.31
2023-04-17T02:46:37.461Z,96177.00
2023-04-17T02:49:04.342Z,96180.72
2023-04-17T02:51:30.945Z,96185.59
2023-04-17T02:53:57.461Z,96176.84
2023-04-17T02:56:24.066Z,96174.75
2023-04-17T02:58:50.613Z,96177.69
2023-04-17T03:01:17.210Z,96174.22
2023-04-17T03:03:45.944Z,96177.88
2023-04-17T03:06:14.588Z,96169.75
2023-04-17T03:08:41.478Z,96172.50
2023-04-17T03:11:08.510Z,96152.16
2023-04-17T03:13:38.454Z,96142.53
2023-04-17T03:16:05.693Z,96169.25
2023-04-17T03:18:38.868Z,96164.28
2023-04-17T03:21:05.456Z,96147.78
2023-04-17T03:23:32.172Z,96157.28
2023-04-17T03:25:59.031Z,96168.81
2023-04-17T03:28:26.141Z,96171.41
2023-04-17T03:30:52.857Z,96170.84
2023-04-17T03:33:19.390Z,96181.31
2023-04-17T03:35:47.774Z,96171.66
2023-04-17T03:38:15.197Z,96181.88
2023-04-17T03:40:41.950Z,96174.81
2023-04-17T03:43:10.444Z,96176.75
2023-04-17T03:45:37.085Z,96173.00
2023-04-17T03:48:03.860Z,96170.59
2023-04-17T03:50:32.535Z,96172.13
2023-04-17T03:53:00.197Z,96173.72
2023-04-17T03:55:28.371Z,96169.72
2023-04-17T03:57:55.091Z,96176.84
2023-04-17T04:00:23.154Z,96160.94
2023-04-17T04:02:54.834Z,96188.84
2023-04-17T04:05:26.522Z,96187.53
2023-04-17T04:07:53.802Z,96190.53
2023-04-17T04:10:26.882Z,96191.75
2023-04-17T04:12:54.808Z,96194.13
2023-04-17T04:15:21.616Z,96191.50
2023-04-17T04:17:53.624Z,96195.47
2023-04-17T04:20:22.290Z,96199.91
2023-04-17T04:22:52.625Z,96191.81
2023-04-17T04:25:19.336Z,96195.00
2023-04-17T04:27:51.135Z,96199.69
2023-04-17T04:30:26.266Z,96191.50
2023-04-17T04:33:05.848Z,96198.69
2023-04-17T04:35:32.677Z,96197.25
2023-04-17T04:38:02.162Z,96195.47
2023-04-17T04:40:35.961Z,96175.38
2023-04-17T04:43:02.850Z,96188.66
2023-04-17T04:45:35.745Z,96199.13
2023-04-17T04:48:03.710Z,96191.06
2023-04-17T04:50:30.926Z,96194.16
2023-04-17T04:52:58.073Z,96187.66
2023-04-17T04:55:36.096Z,96179.00
2023-04-17T04:58:03.831Z,96185.09
2023-04-17T05:00:31.201Z,96191.06
2023-04-17T05:02:59.568Z,96193.19
2023-04-17T05:05:28.960Z,96185.56
2023-04-17T05:07:55.753Z,96196.13
2023-04-17T05:10:25.990Z,96195.09
2023-04-17T05:12:58.494Z,96198.47
2023-04-17T05:15:25.803Z,96200.56
2023-04-17T05:17:52.964Z,96207.09
2023-04-17T05:20:19.660Z,96214.94
2023-04-17T05:22:50.718Z,96211.03
2023-04-17T05:25:17.460Z,96211.84
2023-04-17T05:27:44.115Z,96206.69
2023-04-17T05:30:12.660Z,96220.91
2023-04-17T05:32:41.012Z,96206.41
2023-04-17T05:35:19.007Z,96223.84
2023-04-17T05:37:45.670Z,96223.28
2023-04-17T05:40:13.253Z,96218.59
2023-04-17T05:42:39.778Z,96227.41
2023-04-17T05:45:12.085Z,96233.19
2023-04-17T05:47:38.726Z,96227.47
2023-04-17T05:50:06.576Z,96216.88
2023-04-17T05:52:33.236Z,96214.88
2023-04-17T05:55:00.557Z,96224.09
2023-04-17T05:57:29.380Z,96226.44
2023-04-17T05:59:56.072Z,96228.31
2023-04-17T06:02:22.796Z,96235.97
2023-04-17T06:04:49.529Z,96200.81
2023-04-17T06:07:16.756Z,96228.53
2023-04-17T06:09:43.231Z,96233.91
2023-04-17T06:12:15.799Z,96239.66
2023-04-17T06:14:43.756Z,96244.63
2023-04-17T06:17:12.324Z,96247.75
2023-04-17T06:19:39.015Z,96241.75
2023-04-17T06:22:06.932Z,96251.13
2023-04-17T06:24:33.544Z,96250.38
2023-04-17T06:27:00.160Z,96250.47
2023-04-17T06:29:26.804Z,96251.97
2023-04-17T06:31:53.323Z,96261.59
2023-04-17T06:34:21.729Z,96257.84
2023-04-17T06:36:49.114Z,96255.41
2023-04-17T06:39:17.505Z,96261.94
2023-04-17T06:41:44.131Z,96258.78
2023-04-17T06:44:11.744Z,96261.16
2023-04-17T06:46:46.028Z,96261.19
2023-04-17T06:49:12.733Z,96258.59
2023-04-17T06:51:39.454Z,96245.47
2023-04-17T06:54:06.020Z,96259.81
2023-04-17T06:56:32.516Z,96268.22
2023-04-17T06:59:00.383Z,96265.06
2023-04-17T07:01:29.238Z,96246.59
2023-04-17T07:03:55.873Z,96260.59
2023-04-17T07:06:24.100Z,96250.91
2023-04-17T07:08:50.602Z,96262.03
2023-04-17T07:11:17.087Z,96268.41
2023-04-17T07:13:43.608Z,96271.22
2023-04-17T07:16:10.287Z,96269.97
2023-04-17T07:18:36.796Z,96277.88
2023-04-17T07:21:03.422Z,96273.38
2023-04-17T07:23:29.906Z,96274.97
2023-04-17T07:25:56.407Z,96274.97
2023-04-17T07:28:23.148Z,96277.91
2023-04-17T07:30:49.719Z,96281.09
2023-04-17T07:33:16.267Z,96282.06
2023-04-17T07:35:43.406Z,96279.41
2023-04-17T07:38:09.905Z,96279.41
2023-04-17T07:40:36.557Z,96281.25
2023-04-17T07:43:03.237Z,96283.88
2023-04-17T07:45:29.863Z,96291.00
2023-04-17T07:47:56.451Z,96289.13
2023-04-17T07:50:23.724Z,96291.19
2023-04-17T07:52:50.583Z,96295.16
2023-04-17T07:55:17.141Z,96295.97
2023-04-17T07:57:46.521Z,96295.16
2023-04-17T08:00:14.692Z,96299.66
2023-04-17T08:02:42.950Z,96308.81
2023-04-17T08:05:10.052Z,96303.56
2023-04-17T08:07:37.412Z,96306.00
2023-04-17T08:10:04.672Z,96308.41
2023-04-17T08:12:31.151Z,96315.25
2023-04-17T08:14:57.735Z,96308.19
2023-04-17T08:17:26.135Z,96310.28
2023-04-17T08:19:57.473Z,96306.63
2023-04-17T08:22:25.512Z,96317.19
2023-04-17T08:24:57.162Z,96316.13
2023-04-17T08:27:26.774Z,96317.53
2023-04-17T08:29:54.281Z,96317.00
2023-04-17T08:32:21.376Z,96320.38
2023-04-17T08:34:48.098Z,96321.66
2023-04-17T08:37:14.668Z,96323.53
2023-04-17T08:39:41.371Z,96319.31
2023-04-17T08:42:15.343Z,96324.56
2023-04-17T08:44:44.238Z,96328.22
2023-04-17T08:47:12.812Z,96329.22
2023-04-17T08:49:43.238Z,96330.78
2023-04-17T08:52:09.824Z,96328.13
2023-04-17T08:54:37.945Z,96329.94
2023-04-17T08:57:07.501Z,96322.88
2023-04-17T08:59:34.250Z,96320.22
2023-04-17T09:02:07.902Z,96325.28
2023-04-17T09:04:39.481Z,96315.25
2023-04-17T09:07:07.872Z,96330.00
2023-04-17T09:09:54.947Z,96335.34
2023-04-17T09:12:23.587Z,96331.63
2023-04-17T09:14:50.357Z,96331.09
2023-04-17T09:17:19.103Z,96324.34
2023-04-17T09:20:07.162Z,96327.22
2023-04-17T09:22:34.916Z,96327.81
2023-04-17T09:25:01.625Z,96322.19
2023-04-17T09:27:28.909Z,96322.44
2023-04-17T09:30:06.021Z,96322.75
2023-04-17T09:32:33.510Z,96318.88
2023-04-17T09:35:03.506Z,96314.19
2023-04-17T09:37:53.212Z,96313.69
2023-04-17T09:40:22.012Z,96317.97
2023-04-17T09:43:02.500Z,96316.34
2023-04-17T09:45:42.458Z,96317.97
2023-04-17T09:48:11.546Z,96321.72
2023-04-17T09:50:39.211Z,96323.81
2023-04-17T09:53:07.462Z,96327.47
2023-04-17T09:55:34.659Z,96318.56
2023-04-17T09:58:04.237Z,96322.00
2023-04-17T10:00:31.324Z,96301.16
2023-04-17T10:02:59.535Z,96305.94
2023-04-17T10:05:31.762Z,96323.84
2023-04-17T10:07:58.680Z,96326.22
2023-04-17T10:10:36.580Z,96320.41
2023-04-17T10:13:07.020Z,96317.31
2023-04-17T10:15:37.531Z,96313.41
2023-04-17T10:18:23.992Z,96312.13
2023-04-17T10:20:54.239Z,96305.28
2023-04-17T10:23:36.086Z,96305.28
2023-04-17T10:26:29.996Z,96313.47
2023-04-17T10:28:59.753Z,96301.59
2023-04-17T10:32:04.066Z,96303.19
2023-04-17T10:34:40.990Z,96291.34
2023-04-17T10:37:15.006Z,96293.44
2023-04-17T10:40:09.851Z,96287.13
2023-04-17T10:42:36.409Z,96289.22
2023-04-17T10:45:05.894Z,96285.25
2023-04-17T10:47:35.836Z,96285.78
2023-04-17T10:50:04.051Z,96289.75
2023-04-17T10:52:34.471Z,96284.75
2023-04-17T10:55:08.225Z,96290.78
2023-04-17T10:57:54.321Z,96297.13
2023-04-17T11:00:29.393Z,96292.88
2023-04-17T11:02:56.294Z,96286.84
2023-04-17T11:05:24.084Z,96293.44
2023-04-17T11:07:50.876Z,96284.22
2023-04-17T11:10:21.454Z,96285.25
2023-04-17T11:12:49.017Z,96280.25
2023-04-17T11:15:16.486Z,96281.31
2023-04-17T11:17:47.286Z,96279.97
2023-04-17T11:20:17.392Z,96277.09
2023-04-17T11:22:44.757Z,96266.31
2023-04-17T11:25:30.113Z,96268.13
2023-04-17T11:28:06.899Z,96258.38
2023-04-17T11:30:36.923Z,96268.66
2023-04-17T11:33:05.481Z,96271.28
2023-04-17T11:35:37.217Z,96261.00
2023-04-17T11:38:08.962Z,96270.22
2023-04-17T11:40:35.596Z,96264.44
2023-04-17T11:43:09.256Z,96269.69
2023-04-17T11:45:36.925Z,96262.81
2023-04-17T11:48:04.381Z,96255.97
2023-04-17T11:50:32.401Z,96261.97
2023-04-17T11:53:03.546Z,96263.03
2023-04-17T11:55:31.518Z,96260.38
2023-04-17T11:58:00.228Z,96254.84
2023-04-17T12:00:29.932Z,96246.94
2023-04-17T12:02:57.995Z,96257.75
2023-04-17T12:05:26.615Z,96260.09
2023-04-17T12:08:04.403Z,96258.81
2023-04-17T12:10:38.881Z,96257.97
2023-04-17T12:13:05.651Z,96251.41
2023-04-17T12:15:32.192Z,96254.56
2023-04-17T12:17:58.709Z,96257.94
2023-04-17T12:20:26.784Z,96256.59
2023-04-17T12:22:53.374Z,96248.44
2023-04-17T12:25:19.870Z,96254.22
2023-04-17T12:27:48.780Z,96243.44
2023-04-17T12:30:16.461Z,96242.13
2023-04-17T12:32:48.497Z,96240.38
2023-04-17T12:35:16.062Z,96241.75
2023-04-17T12:37:48.453Z,96233.78
2023-04-17T12:40:16.892Z,96232.97
2023-04-17T12:42:49.077Z,96236.09
2023-04-17T12:45:16.997Z,96225.00
2023-04-17T12:47:44.295Z,96237.56
2023-04-17T12:50:12.110Z,96233.38
2023-04-17T12:52:39.471Z,96228.91
2023-04-17T12:55:07.589Z,96217.16
2023-04-17T12:57:35.644Z,96222.16
2023-04-17T13:00:05.864Z,96215.59
2023-04-17T13:02:32.927Z,96216.06
2023-04-17T13:04:59.581Z,96218.91
2023-04-17T13:07:26.843Z,96217.88
2023-04-17T13:09:53.400Z,96216.31
2023-04-17T13:12:19.870Z,96219.22
2023-04-17T13:14:46.410Z,96208.09
2023-04-17T13:17:15.719Z,96219.78
2023-04-17T13:19:43.592Z,96209.22
2023-04-17T13:22:11.013Z,96214.13
2023-04-17T13:24:37.824Z,96206.75
2023-04-17T13:27:04.604Z,96211.91
2023-04-17T13:29:31.395Z,96208.84
2023-04-17T13:31:57.901Z,96202.91
2023-04-17T13:34:24.471Z,96207.53
2023-04-17T13:36:51.023Z,96195.97
2023-04-17T13:39:17.527Z,96212.59
2023-04-17T13:41:44.160Z,96203.34
2023-04-17T13:44:10.899Z,96209.03
2023-04-17T13:46:37.529Z,96207.41
2023-04-17T13:49:04.091Z,96206.19
2023-04-17T13:51:31.712Z,96204.09
2023-04-17T13:54:01.119Z,96203.69
2023-04-17T13:56:27.770Z,96201.63
2023-04-17T13:58:54.911Z,96194.75
2023-04-17T14:01:21.804Z,96185.06
2023-04-17T14:03:48.555Z,96197.09
2023-04-17T14:06:17.672Z,96198.81
2023-04-17T14:08:45.580Z,96199.72
2023-04-17T14:11:13.280Z,96170.72
2023-04-17T14:13:39.811Z,96195.00
2023-04-17T14:16:06.737Z,96182.84
2023-04-17T14:18:33.306Z,96184.94
2023-04-17T14:20:59.819Z,96179.81
2023-04-17T14:23:26.291Z,96179.13
2023-04-17T14:25:52.807Z,96178.72
2023-04-17T14:28:20.911Z,96174.97
2023-04-17T14:30:48.233Z,96178.72
2023-04-17T14:33:14.846Z,96169.00
2023-04-17T14:35:41.371Z,96174.25
2023-04-17T14:38:08.349Z,96174.03
2023-04-17T14:40:34.936Z,96165.38
2023-04-17T14:43:01.599Z,96161.75
2023-04-17T14:45:28.530Z,96172.00
2023-04-17T14:47:55.157Z,96167.84
2023-04-17T14:50:21.754Z,96162.34
2023-04-17T14:52:48.297Z,96165.13
2023-04-17T14:55:14.924Z,96163.66
2023-04-17T14:57:41.445Z,96161.09
2023-04-17T15:00:08.651Z,96157.72
2023-04-17T15:02:38.558Z,96159.38
2023-04-17T15:05:06.300Z,96156.09
2023-04-17T15:07:32.902Z,96147.66
2023-04-17T15:09:59.412Z,96153.31
2023-04-17T15:12:26.076Z,96163.03
2023-04-17T15:14:52.592Z,96171.50
2023-04-17T15:17:19.140Z,96175.72
2023-04-17T15:19:45.666Z,96174.75
2023-04-17T15:22:12.173Z,96178.84
2023-04-17T15:24:38.650Z,96178.97
2023-04-17T15:27:05.403Z,96186.31
2023-04-17T15:29:32.004Z,96187.47
2023-04-17T15:31:59.142Z,96189.22
2023-04-17T15:34:25.827Z,96190.28
2023-04-17T15:36:52.300Z,96184.84
2023-04-17T15:39:18.895Z,96185.41
2023-04-17T15:41:45.534Z,96186.56
2023-04-17T15:44:12.004Z,96198.41
2023-04-17T15:46:38.521Z,96203.94
2023-04-17T15:49:09.272Z,96196.88
2023-04-17T15:51:36.232Z,96195.00
2023-04-17T15:54:02.863Z,96199.31
2023-04-17T15:56:29.433Z,96203.84
2023-04-17T15:58:55.891Z,96205.75
2023-04-17T16:01:22.530Z,96199.47
2023-04-17T16:03:49.272Z,96201.59
2023-04-17T16:06:15.992Z,96192.13
2023-04-17T16:08:42.463Z,96189.81
2023-04-17T16:11:09.079Z,96187.19
2023-04-17T16:13:35.558Z,96171.66
2023-04-17T16:16:02.064Z,96186.16
2023-04-17T16:18:28.591Z,96185.88
2023-04-17T16:20:55.209Z,96187.22
2023-04-17T16:23:22.332Z,96184.31
2023-04-17T16:25:51.100Z,96188.53
2023-04-17T16:28:17.603Z,96187.75
2023-04-17T16:30:44.156Z,96189.09
2023-04-17T16:33:10.630Z,96188.28
2023-04-17T16:35:37.082Z,96185.66
2023-04-17T16:38:03.823Z,96198.03
2023-04-17T16:40:30.947Z,96188.53
2023-04-17T16:42:57.469Z,96176.72
2023-04-17T16:45:23.971Z,96193.28
2023-04-17T16:47:50.550Z,96190.13
2023-04-17T16:50:17.299Z,96198.59
2023-04-17T16:52:43.827Z,96199.38
2023-04-17T16:55:10.425Z,96189.66
2023-04-17T16:57:38.210Z,96200.19
2023-04-17T17:00:06.243Z,96203.63
2023-04-17T17:02:32.876Z,96200.72
2023-04-17T17:04:59.409Z,96203.88
2023-04-17T17:07:26.161Z,96202.56
2023-04-17T17:09:52.898Z,96204.41
2023-04-17T17:12:19.412Z,96207.06
2023-04-17T17:14:45.926Z,96198.88
2023-04-17T17:17:12.383Z,96206.53
2023-04-17T17:19:39.011Z,96208.38
2023-04-17T17:22:05.621Z,96205.75
2023-04-17T17:24:32.219Z,96201.28
2023-04-17T17:26:58.668Z,96210.22
2023-04-17T17:29:25.231Z,96207.84
2023-04-17T17:31:51.854Z,96172.84
2023-04-17T17:34:26.125Z,96213.13
2023-04-17T17:36:53.495Z,96208.13
2023-04-17T17:39:21.802Z,96208.38
2023-04-17T17:41:48.585Z,96212.34
2023-04-17T17:44:15.327Z,96208.63
2023-04-17T17:46:42.016Z,96212.84
2023-04-17T17:49:08.625Z,96216.53
2023-04-17T17:51:35.262Z,96212.31
2023-04-17T17:54:01.754Z,96203.66
2023-04-17T17:56:28.500Z,96221.53
2023-04-17T17:58:55.372Z,96221.53
2023-04-17T18:01:24.578Z,96226.53
2023-04-17T18:03:51.543Z,96224.97
2023-04-17T18:06:18.379Z,96224.44
2023-04-17T18:08:44.928Z,96229.97
2023-04-17T18:11:13.203Z,96229.19
2023-04-17T18:13:39.690Z,96234.69
2023-04-17T18:16:06.601Z,96228.13
2023-04-17T18:18:33.167Z,96237.59
2023-04-17T18:20:59.784Z,96239.72
2023-04-17T18:23:26.360Z,96226.56
2023-04-17T18:26:00.352Z,96232.88
2023-04-17T18:28:27.276Z,96235.75
2023-04-17T18:30:54.182Z,96243.41
2023-04-17T18:33:20.941Z,96246.03
2023-04-17T18:35:47.459Z,96244.44
2023-04-17T18:38:14.782Z,96251.31
2023-04-17T18:40:41.297Z,96253.66
2023-04-17T18:43:10.038Z,96256.28
2023-04-17T18:45:36.910Z,96254.19
2023-04-17T18:48:03.666Z,96258.13
2023-04-17T18:50:30.558Z,96258.38
2023-04-17T18:52:57.114Z,96255.25
2023-04-17T18:55:23.724Z,96260.75
2023-04-17T18:57:50.328Z,96261.53
2023-04-17T19:00:16.887Z,96264.69
2023-04-17T19:02:43.480Z,96259.13
2023-04-17T19:05:10.179Z,96257.31
2023-04-17T19:07:36.656Z,96256.75
2023-04-17T19:10:03.355Z,96264.38
2023-04-17T19:12:30.521Z,96257.00
2023-04-17T19:14:59.962Z,96255.19
2023-04-17T19:17:26.503Z,96267.78
2023-04-17T19:19:53.021Z,96266.72
2023-04-17T19:22:19.604Z,96268.81
2023-04-17T19:24:49.932Z,96263.56
2023-04-17T19:27:16.929Z,96267.25
2023-04-17T19:29:43.456Z,96267.28
2023-04-17T19:32:10.735Z,96267.53
2023-04-17T19:34:37.380Z,96264.88
2023-04-17T19:37:04.212Z,96261.22
2023-04-17T19:39:31.084Z,96260.69
2023-04-17T19:41:58.010Z,96252.00
2023-04-17T19:44:26.000Z,96254.91
2023-04-17T19:46:54.305Z,96254.63
2023-04-17T19:49:20.866Z,96253.03
2023-04-17T19:51:47.398Z,96255.41
2023-04-17T19:54:15.287Z,96254.84
2023-04-17T19:56:41.912Z,96258.81
2023-04-17T19:59:12.501Z,96256.44
2023-04-17T20:01:40.468Z,96247.75
2023-04-17T20:04:08.825Z,96252.75
2023-04-17T20:06:36.034Z,96254.31
2023-04-17T20:09:03.623Z,96254.56
2023-04-17T20:11:30.262Z,96249.06
2023-04-17T20:13:56.775Z,96231.69
2023-04-17T20:16:24.168Z,96241.94
2023-04-17T20:18:51.914Z,96252.47
2023-04-17T20:21:18.837Z,96236.13
2023-04-17T20:23:46.840Z,96241.41
2023-04-17T20:26:13.376Z,96244.06
2023-04-17T20:28:40.256Z,96239.31
2023-04-17T20:31:07.211Z,96240.09
2023-04-17T20:33:33.996Z,96245.91
2023-04-17T20:36:02.020Z,96246.44
2023-04-17T20:38:28.595Z,96249.88
2023-04-17T20:40:55.245Z,96248.31
2023-04-17T20:43:21.739Z,96244.09
2023-04-17T20:45:49.277Z,96242.28
2023-04-17T20:48:16.426Z,96243.28
2023-04-17T20:50:43.486Z,96241.75
2023-04-17T20:53:10.089Z,96242.75
2023-04-17T20:55:38.022Z,96248.81
2023-04-17T20:58:04.575Z,96236.97
2023-04-17T21:00:31.182Z,96240.13
2023-04-17T21:02:57.836Z,96232.78
2023-04-17T21:05:24.550Z,96233.03
2023-04-17T21:07:51.729Z,96244.88
2023-04-17T21:10:20.029Z,96239.59
2023-04-17T21:12:47.033Z,96236.97
2023-04-17T21:15:13.800Z,96236.94
2023-04-17T21:17:40.419Z,96226.19
2023-04-17T21:20:07.731Z,96235.41
2023-04-17T21:22:34.292Z,96230.63
2023-04-17T21:25:00.817Z,96223.81
2023-04-17T21:27:27.333Z,96227.50
2023-04-17T21:29:53.853Z,96225.94
2023-04-17T21:32:20.476Z,96229.31
2023-04-17T21:34:46.997Z,96227.19
2023-04-17T21:37:13.539Z,96230.63
2023-04-17T21:39:40.166Z,96229.31
2023-04-17T21:42:06.660Z,96227.22
2023-04-17T21:44:33.178Z,96225.59
2023-04-17T21:46:59.763Z,96230.06
2023-04-17T21:49:26.327Z,96232.44
2023-04-17T21:51:52.840Z,96225.34
2023-04-17T21:54:19.319Z,96228.00
2023-04-17T21:56:45.840Z,96224.03
2023-04-17T21:59:12.393Z,96223.22
2023-04-17T22:01:38.920Z,96225.31
2023-04-17T22:04:05.476Z,96224.78
2023-04-17T22:06:36.737Z,96229.78
2023-04-17T22:09:04.700Z,96225.84
2023-04-17T22:11:31.205Z,96227.94
2023-04-17T22:13:57.712Z,96226.91
2023-04-17T22:16:24.558Z,96221.34
2023-04-17T22:18:51.070Z,96228.72
2023-04-17T22:21:17.552Z,96221.88
2023-04-17T22:23:44.036Z,96233.72
2023-04-17T22:26:10.668Z,96222.44
2023-04-17T22:28:37.179Z,96229.03
2023-04-17T22:31:03.670Z,96220.09
2023-04-17T22:33:30.278Z,96225.31
2023-04-17T22:35:56.962Z,96226.38
2023-04-17T22:38:23.425Z,96225.84
2023-04-17T22:40:49.964Z,96226.38
2023-04-17T22:43:16.447Z,96232.94
2023-04-17T22:45:43.767Z,96228.47
2023-04-17T22:48:10.278Z,96225.84
2023-04-17T22:50:37.855Z,96231.84
2023-04-17T22:53:04.405Z,96226.31
2023-04-17T22:55:30.974Z,96220.25
2023-04-17T22:57:57.656Z,96227.59
2023-04-17T23:00:25.381Z,96222.59
2023-04-17T23:02:52.322Z,96223.13
2023-04-17T23:05:19.084Z,96211.81
2023-04-17T23:07:45.790Z,96224.97
2023-04-17T23:10:12.278Z,96221.53
2023-04-17T23:12:38.771Z,96224.16
2023-04-17T23:15:06.021Z,96224.66
2023-04-17T23:17:33.142Z,96222.00
2023-04-17T23:19:59.741Z,96218.31
2023-04-17T23:22:26.235Z,96218.81
2023-04-17T23:24:52.715Z,96216.97
2023-04-17T23:27:19.745Z,96215.94
2023-04-17T23:29:46.417Z,96212.47
2023-04-17T23:32:12.966Z,96211.94
2023-04-17T23:34:39.465Z,96215.91
2023-04-17T23:37:06.077Z,96213.22
2023-04-17T23:39:32.591Z,96202.41
2023-04-17T23:42:00.490Z,96207.91
2023-04-17T23:44:27.099Z,96211.91
2023-04-17T23:46:53.590Z,96210.53
2023-04-17T23:49:20.104Z,96215.53
2023-04-17T23:51:46.600Z,96186.28
2023-04-17T23:54:13.408Z,96203.38
2023-04-17T23:56:43.239Z,96201.25
2023-04-17T23:59:09.764Z,96199.09
